OUR AIRPORTS

Not only does Van Anda Aviation provide a wide selection of affordable planes to rent, we also provide various locations across the Central Florida region for your accessibility. Van Anda Aviation is built for pilots, by pilots. We want to ensure pilots across Central Florida have easy access to aircraft rental, without jumping through all the red-tape. Simply go for a checkout with one of our authorized instructors, and you’re good to fly! Below are just a few airports we currently fly from.

If you want easy, accessible flying, register for an account with us today – it’s free!

KISSIMMEE GATEWAY AIRPORT

  • Runways: 06/24 and 15/33

  • Weather Summary: VFR

  • METAR: KISM 040356Z AUTO 17005KT 10SM CLR 18/17 A3010 RMK AO2 SLP194 T01830172 $

ORLANDO NORTH AIRPARK

ALBERT WHITTED AIRPORT

  • Runways: 07/25 and 18/36

  • Weather Summary: VFR

  • METAR: KSPG 040253Z AUTO 08008KT 10SM CLR 21/19 A3008 RMK AO2 SLP187 T02060189 51014